Time;durP1;ratioP1;P1;durP2;ratioP2;P2;SDS_P1;SDS_P2;PMS_P1;PMS_P2;Temp;Humidity;BMP_temperature;BMP_pressure;BME280_temperature;BME280_humidity;BME280_pressure;Samples;Min_cycle;Max_cycle;Signal;HPM_P1;HPM_P2
2022/04/03 00:00:07;;;;;;;17.05;15.30;;;1.80;99.90;;;;;;6023845;23;20276;-74
2022/04/03 00:02:34;;;;;;;17.65;15.80;;;1.70;99.90;;;;;;6031983;23;20244;-74
2022/04/03 00:05:02;;;;;;;16.85;15.25;;;1.70;99.90;;;;;;6031684;23;20235;-74
2022/04/03 00:07:29;;;;;;;16.80;15.10;;;1.70;99.90;;;;;;6030459;23;20225;-74
2022/04/03 00:09:56;;;;;;;17.60;15.88;;;1.60;99.90;;;;;;6033435;23;20186;-74
2022/04/03 00:12:23;;;;;;;18.63;16.90;;;1.60;99.90;;;;;;6032790;23;20273;-74
2022/04/03 00:14:50;;;;;;;18.73;16.80;;;1.60;99.90;;;;;;6032486;23;20218;-75
2022/04/03 00:17:17;;;;;;;19.38;17.35;;;1.60;99.90;;;;;;6028541;23;20194;-74
2022/04/03 00:19:44;;;;;;;17.95;16.15;;;1.60;99.90;;;;;;6031959;23;20202;-75
2022/04/03 00:22:13;;;;;;;17.42;15.65;;;1.60;99.90;;;;;;6032985;23;20214;-75
2022/04/03 00:24:41;;;;;;;17.88;15.50;;;1.50;99.90;;;;;;6030191;23;20264;-75
2022/04/03 00:27:08;;;;;;;16.90;15.30;;;1.50;99.90;;;;;;6032464;23;20221;-75
2022/04/03 00:29:35;;;;;;;16.02;14.43;;;1.50;99.90;;;;;;6032353;23;20198;-75
2022/04/03 00:32:02;;;;;;;18.40;15.45;;;1.50;99.90;;;;;;6031346;23;20288;-74
2022/04/03 00:34:30;;;;;;;17.75;15.07;;;1.50;99.90;;;;;;6030208;23;20256;-74
2022/04/03 00:36:57;;;;;;;16.60;15.00;;;1.60;99.90;;;;;;6031359;23;20198;-74
2022/04/03 00:39:25;;;;;;;16.77;15.18;;;1.60;99.90;;;;;;6033873;23;20195;-75
2022/04/03 00:41:53;;;;;;;17.02;15.32;;;1.60;99.90;;;;;;6031595;23;20268;-74
2022/04/03 00:44:20;;;;;;;18.83;16.83;;;1.60;99.90;;;;;;6031428;23;20224;-74
2022/04/03 00:46:47;;;;;;;17.08;15.27;;;1.60;99.90;;;;;;6031762;23;20285;-74
2022/04/03 00:49:14;;;;;;;19.80;17.63;;;1.60;99.90;;;;;;6032981;23;20246;-74
2022/04/03 00:51:41;;;;;;;18.10;16.30;;;1.60;99.90;;;;;;6030004;23;20265;-74
2022/04/03 00:54:08;;;;;;;20.05;18.25;;;1.60;99.90;;;;;;6028950;23;20278;-75
2022/04/03 00:56:38;;;;;;;18.85;16.85;;;1.70;99.90;;;;;;6032547;23;20197;-74
2022/04/03 00:59:05;;;;;;;17.20;15.60;;;1.70;99.90;;;;;;6029885;23;20261;-74
2022/04/03 01:01:32;;;;;;;17.95;16.15;;;1.70;99.90;;;;;;6015602;23;20731;-74
2022/04/03 01:04:00;;;;;;;19.55;16.40;;;1.70;99.90;;;;;;6029067;23;20194;-74
2022/04/03 01:06:28;;;;;;;16.20;14.52;;;1.70;99.90;;;;;;6032977;23;20296;-74
2022/04/03 01:08:55;;;;;;;18.15;15.25;;;1.70;99.90;;;;;;6030645;23;20205;-74
2022/04/03 01:11:22;;;;;;;18.15;16.35;;;1.70;99.90;;;;;;6032122;23;20336;-74
2022/04/03 01:13:52;;;;;;;16.42;14.70;;;1.70;99.90;;;;;;6031317;23;20194;-74
2022/04/03 01:16:19;;;;;;;16.17;14.57;;;1.70;99.90;;;;;;6030817;23;20202;-74
2022/04/03 01:18:46;;;;;;;14.85;13.35;;;1.80;99.90;;;;;;6032200;23;20190;-74
2022/04/03 01:21:14;;;;;;;14.45;13.13;;;1.80;99.90;;;;;;6032407;23;20618;-74
2022/04/03 01:23:41;;;;;;;15.52;13.93;;;1.80;99.90;;;;;;6030324;23;20552;-74
2022/04/03 01:26:10;;;;;;;15.88;14.27;;;1.80;99.90;;;;;;6030346;23;20228;-74
2022/04/03 01:28:37;;;;;;;14.43;13.18;;;1.70;99.90;;;;;;6033642;23;20209;-74
2022/04/03 01:31:04;;;;;;;15.95;14.55;;;1.80;99.90;;;;;;6031979;23;20268;-74
2022/04/03 01:33:31;;;;;;;15.60;14.00;;;1.80;99.90;;;;;;6029287;23;20222;-74
2022/04/03 01:35:57;;;;;;;16.08;14.38;;;1.80;99.90;;;;;;6030223;23;20225;-74
2022/04/03 01:38:37;;;;;;;13.30;12.00;;;1.80;99.90;;;;;;6028610;23;20264;-74
2022/04/03 01:41:04;;;;;;;14.10;12.70;;;1.80;99.90;;;;;;6027917;23;21555;-74
2022/04/03 01:43:32;;;;;;;15.40;14.02;;;1.80;99.90;;;;;;6024592;23;20671;-74
2022/04/03 01:45:59;;;;;;;16.48;14.23;;;1.80;99.90;;;;;;6030312;23;20194;-74
2022/04/03 01:48:26;;;;;;;15.45;14.00;;;1.80;99.90;;;;;;6023280;23;20285;-74
2022/04/03 01:50:53;;;;;;;15.07;13.65;;;1.70;99.90;;;;;;6029523;23;20348;-74
2022/04/03 01:53:20;;;;;;;16.52;14.82;;;1.70;99.90;;;;;;6020700;23;20667;-74
2022/04/03 01:55:58;;;;;;;14.60;13.10;;;1.70;99.90;;;;;;6030148;23;20196;-74
2022/04/03 01:58:26;;;;;;;15.30;13.80;;;1.70;99.90;;;;;;6030990;23;20207;-74
2022/04/03 02:00:54;;;;;;;16.08;14.55;;;1.70;99.90;;;;;;6024885;23;20206;-74
2022/04/03 02:03:21;;;;;;;15.88;14.23;;;1.70;99.90;;;;;;6028929;23;20826;-74
2022/04/03 02:05:48;;;;;;;15.90;14.40;;;1.60;99.90;;;;;;6022547;23;20221;-74
2022/04/03 02:08:15;;;;;;;16.13;14.40;;;1.70;99.90;;;;;;6032778;23;20304;-74
2022/04/03 02:10:43;;;;;;;16.05;14.48;;;1.70;99.90;;;;;;6028262;23;20300;-74
2022/04/03 02:13:10;;;;;;;15.20;13.80;;;1.80;99.90;;;;;;6032716;23;20190;-74
2022/04/03 02:15:36;;;;;;;15.13;13.60;;;1.80;99.90;;;;;;6030525;23;20189;-74
2022/04/03 02:18:05;;;;;;;15.02;13.52;;;1.80;99.90;;;;;;6032523;23;20268;-74
2022/04/03 02:20:32;;;;;;;16.15;14.55;;;1.80;99.90;;;;;;6026334;23;20783;-74
2022/04/03 02:22:59;;;;;;;15.82;14.13;;;1.80;99.90;;;;;;6032091;23;20204;-74
2022/04/03 02:25:26;;;;;;;16.27;14.55;;;1.80;99.90;;;;;;6030467;23;20269;-74
2022/04/03 02:27:54;;;;;;;14.55;13.25;;;1.80;99.90;;;;;;6026743;23;20304;-74
2022/04/03 02:30:21;;;;;;;14.30;12.90;;;1.80;99.90;;;;;;6029787;23;20213;-74
2022/04/03 02:32:48;;;;;;;15.88;14.20;;;1.90;99.90;;;;;;6029050;23;20207;-74
2022/04/03 02:35:16;;;;;;;14.55;13.15;;;1.90;99.90;;;;;;6031022;23;20633;-74
2022/04/03 02:37:43;;;;;;;14.85;13.20;;;1.90;99.90;;;;;;6032603;23;20195;-74
2022/04/03 02:40:12;;;;;;;13.27;12.07;;;1.90;99.90;;;;;;6031844;23;20692;-74
2022/04/03 02:42:40;;;;;;;15.10;13.75;;;1.90;99.90;;;;;;6030442;23;20194;-74
2022/04/03 02:45:08;;;;;;;13.50;12.23;;;1.90;99.90;;;;;;6028271;23;20199;-74
2022/04/03 02:47:35;;;;;;;14.13;12.73;;;1.90;99.90;;;;;;6006193;22;20308;-74
2022/04/03 02:50:03;;;;;;;14.88;13.30;;;1.90;99.90;;;;;;5987914;23;20222;-75
2022/04/03 02:52:31;;;;;;;13.90;12.60;;;1.90;99.90;;;;;;5975701;24;20195;-74
2022/04/03 02:54:58;;;;;;;13.63;12.32;;;1.90;99.90;;;;;;5974464;24;20253;-74
2022/04/03 02:57:25;;;;;;;13.07;11.85;;;1.90;99.90;;;;;;5972740;24;20190;-74
2022/04/03 02:59:52;;;;;;;13.00;11.85;;;1.90;99.90;;;;;;5973409;23;20211;-74
2022/04/03 03:02:19;;;;;;;13.68;12.23;;;1.90;99.90;;;;;;5971823;23;20205;-74
2022/04/03 03:04:46;;;;;;;12.35;11.20;;;1.90;99.90;;;;;;5968255;24;20197;-74
2022/04/03 03:07:14;;;;;;;12.77;11.50;;;1.90;99.90;;;;;;5972681;24;20223;-74
2022/04/03 03:09:43;;;;;;;13.60;12.30;;;1.90;99.90;;;;;;5973891;23;20219;-75
2022/04/03 03:12:10;;;;;;;13.63;12.30;;;1.90;99.90;;;;;;5974823;24;20537;-74
2022/04/03 03:14:37;;;;;;;13.93;12.52;;;1.90;99.90;;;;;;5974148;24;20558;-75
2022/04/03 03:17:04;;;;;;;13.73;12.32;;;1.90;99.90;;;;;;5975140;23;20278;-74
2022/04/03 03:19:31;;;;;;;12.57;11.38;;;1.90;99.90;;;;;;5976468;23;20244;-74
2022/04/03 03:21:58;;;;;;;13.13;11.93;;;1.90;99.90;;;;;;5972698;24;20229;-74
2022/04/03 03:24:25;;;;;;;13.80;12.48;;;2.00;99.90;;;;;;5976923;24;20269;-74
2022/04/03 03:26:54;;;;;;;13.60;12.30;;;2.00;99.90;;;;;;5974805;24;20214;-75
2022/04/03 03:29:20;;;;;;;15.07;13.25;;;2.00;99.90;;;;;;5970046;23;20197;-74
2022/04/03 03:31:47;;;;;;;14.27;12.77;;;2.00;99.90;;;;;;5972643;24;20282;-74
2022/04/03 03:34:14;;;;;;;13.77;12.02;;;2.00;99.90;;;;;;5976622;23;20195;-74
2022/04/03 03:36:41;;;;;;;12.73;11.45;;;2.00;99.90;;;;;;5970704;23;20710;-75
2022/04/03 03:39:08;;;;;;;13.48;12.27;;;2.00;99.90;;;;;;5977017;23;20598;-74
2022/04/03 03:41:35;;;;;;;13.68;12.32;;;2.00;99.90;;;;;;5971890;24;20219;-75
2022/04/03 03:44:09;;;;;;;14.43;13.05;;;2.00;99.90;;;;;;5974467;24;20657;-74
2022/04/03 03:46:37;;;;;;;13.30;12.10;;;2.00;99.90;;;;;;5971465;24;20211;-75
2022/04/03 03:49:04;;;;;;;13.30;12.10;;;2.00;99.90;;;;;;5973426;24;20226;-74
2022/04/03 03:51:31;;;;;;;12.60;11.40;;;2.00;99.90;;;;;;5974237;24;20639;-74
2022/04/03 03:53:58;;;;;;;12.88;11.57;;;2.10;99.90;;;;;;5971322;23;20199;-74
2022/04/03 03:56:24;;;;;;;12.60;11.40;;;2.00;99.90;;;;;;5974042;24;20662;-74
2022/04/03 03:58:51;;;;;;;13.02;11.73;;;2.10;99.90;;;;;;5975278;24;20198;-74
2022/04/03 04:01:20;;;;;;;12.35;11.25;;;2.10;99.90;;;;;;5963978;23;20817;-75
2022/04/03 04:03:47;;;;;;;12.60;11.40;;;2.10;99.90;;;;;;5975360;24;20266;-74
2022/04/03 04:06:15;;;;;;;11.43;10.32;;;2.10;99.90;;;;;;5972526;24;20192;-75
2022/04/03 04:08:42;;;;;;;11.88;10.77;;;2.20;99.90;;;;;;5976773;24;20253;-74
2022/04/03 04:11:09;;;;;;;12.32;11.05;;;2.20;99.90;;;;;;5974018;23;20223;-74
2022/04/03 04:13:37;;;;;;;10.40;9.40;;;2.20;99.90;;;;;;5974505;23;20203;-74
2022/04/03 04:16:05;;;;;;;11.73;10.68;;;2.20;99.90;;;;;;5973859;23;20199;-74
2022/04/03 04:18:33;;;;;;;11.00;9.98;;;2.20;99.90;;;;;;5973741;23;20235;-74
2022/04/03 04:21:02;;;;;;;11.30;10.30;;;2.30;99.90;;;;;;5969928;23;20290;-75
2022/04/03 04:23:29;;;;;;;11.27;10.18;;;2.30;99.90;;;;;;5974639;23;20196;-74
2022/04/03 04:25:56;;;;;;;11.13;9.82;;;2.30;99.90;;;;;;5973670;24;20195;-75
2022/04/03 04:28:23;;;;;;;11.60;10.40;;;2.30;99.90;;;;;;5975613;24;20707;-74
2022/04/03 04:30:50;;;;;;;10.70;9.70;;;2.20;99.90;;;;;;5972514;23;20297;-74
2022/04/03 04:33:16;;;;;;;11.30;10.30;;;2.30;99.90;;;;;;5976664;24;20191;-74
2022/04/03 04:35:45;;;;;;;11.48;10.38;;;2.30;99.90;;;;;;5973327;23;20715;-74
2022/04/03 04:38:12;;;;;;;11.27;10.27;;;2.30;99.90;;;;;;5977235;23;20286;-74
2022/04/03 04:40:39;;;;;;;11.13;10.00;;;2.30;99.90;;;;;;5973112;23;20215;-75
2022/04/03 04:43:06;;;;;;;10.85;9.85;;;2.30;99.90;;;;;;5963574;23;20237;-74
2022/04/03 04:45:33;;;;;;;12.23;11.07;;;2.30;99.90;;;;;;5976673;24;20270;-73
2022/04/03 04:48:00;;;;;;;10.63;9.45;;;2.30;99.90;;;;;;5972913;23;20230;-74
2022/04/03 04:50:27;;;;;;;11.80;10.63;;;2.20;99.90;;;;;;5970506;23;20218;-74
2022/04/03 04:52:57;;;;;;;10.52;9.63;;;2.20;99.90;;;;;;5975836;23;20195;-74
2022/04/03 04:55:25;;;;;;;11.10;10.00;;;2.20;99.90;;;;;;5975035;24;20195;-74
2022/04/03 04:57:54;;;;;;;11.07;9.98;;;2.20;99.90;;;;;;5975765;24;20202;-73
2022/04/03 05:00:24;;;;;;;12.55;9.75;;;2.10;99.90;;;;;;5973260;23;20309;-74
2022/04/03 05:02:51;;;;;;;10.52;9.45;;;2.10;99.90;;;;;;5974375;23;20806;-74
2022/04/03 05:05:19;;;;;;;10.88;9.77;;;2.10;99.90;;;;;;5973686;24;20194;-74
2022/04/03 05:07:48;;;;;;;9.93;9.02;;;2.20;99.90;;;;;;5974740;24;20207;-74
2022/04/03 05:10:17;;;;;;;9.50;8.60;;;2.20;99.90;;;;;;5973309;23;20211;-74
2022/04/03 05:12:45;;;;;;;10.77;9.80;;;2.20;99.90;;;;;;5976115;24;20218;-74
2022/04/03 05:15:13;;;;;;;11.10;10.00;;;2.10;99.90;;;;;;5973965;23;20219;-74
2022/04/03 05:17:41;;;;;;;9.73;8.73;;;2.20;99.90;;;;;;5973599;23;20286;-74
2022/04/03 05:20:09;;;;;;;10.13;9.27;;;2.20;99.90;;;;;;5972756;23;20253;-74
2022/04/03 05:22:36;;;;;;;10.07;9.15;;;2.20;99.90;;;;;;5976547;24;20199;-74
2022/04/03 05:25:04;;;;;;;12.25;9.55;;;2.20;99.90;;;;;;5972656;23;20661;-74
2022/04/03 05:27:33;;;;;;;11.60;9.90;;;2.20;99.90;;;;;;5976182;23;20195;-74
2022/04/03 05:30:01;;;;;;;10.70;9.00;;;2.20;99.90;;;;;;5974557;23;20291;-76
2022/04/03 05:32:29;;;;;;;9.60;8.70;;;2.30;99.90;;;;;;5968197;23;20260;-75
2022/04/03 05:34:57;;;;;;;9.75;8.85;;;2.40;99.90;;;;;;5973385;24;20195;-75
2022/04/03 05:37:24;;;;;;;9.45;8.65;;;2.40;99.90;;;;;;5969691;23;20228;-75
2022/04/03 05:39:52;;;;;;;9.13;8.20;;;2.40;99.90;;;;;;5975595;23;20289;-77
2022/04/03 05:42:19;;;;;;;8.98;8.07;;;2.50;99.90;;;;;;5968213;23;20244;-75
2022/04/03 05:44:48;;;;;;;9.93;8.95;;;2.60;99.90;;;;;;5970494;24;20191;-75
2022/04/03 05:47:16;;;;;;;10.00;9.02;;;2.60;99.90;;;;;;5961508;24;20196;-76
2022/04/03 05:49:43;;;;;;;9.73;8.60;;;2.70;99.90;;;;;;5976237;23;20709;-75
2022/04/03 05:52:10;;;;;;;9.45;8.13;;;2.70;99.90;;;;;;5977180;24;20197;-76
2022/04/03 05:54:37;;;;;;;8.60;7.70;;;2.80;99.90;;;;;;5975386;24;20534;-75
2022/04/03 05:57:05;;;;;;;8.13;7.43;;;2.80;99.90;;;;;;5975690;23;20192;-76
2022/04/03 05:59:33;;;;;;;8.38;7.57;;;2.80;99.90;;;;;;5974315;23;20256;-83
2022/04/03 06:02:01;;;;;;;8.68;7.75;;;2.80;99.90;;;;;;5971143;24;20187;-76
2022/04/03 06:04:28;;;;;;;8.82;8.02;;;2.90;99.90;;;;;;5969242;24;20239;-75
2022/04/03 06:06:55;;;;;;;8.68;7.88;;;2.90;99.90;;;;;;5957125;23;20217;-76
2022/04/03 06:09:22;;;;;;;8.20;7.40;;;3.00;99.90;;;;;;5961917;23;20267;-76
2022/04/03 06:11:49;;;;;;;8.60;7.82;;;3.00;99.90;;;;;;5971558;23;20185;-76
2022/04/03 06:14:16;;;;;;;7.88;7.18;;;3.00;99.90;;;;;;5973400;23;20187;-76
2022/04/03 06:16:43;;;;;;;6.95;6.35;;;3.00;99.90;;;;;;5974340;23;20192;-75
2022/04/03 06:19:12;;;;;;;7.63;7.00;;;3.00;99.90;;;;;;5968365;23;20216;-76
2022/04/03 06:21:39;;;;;;;8.23;7.60;;;3.10;99.90;;;;;;5969617;23;20193;-75
2022/04/03 06:24:07;;;;;;;8.68;7.88;;;3.20;99.90;;;;;;5962944;23;20191;-75
2022/04/03 06:26:33;;;;;;;8.02;7.32;;;3.30;99.90;;;;;;5969329;23;20688;-76
2022/04/03 06:29:01;;;;;;;7.60;6.90;;;3.30;99.90;;;;;;5971460;23;20225;-76
2022/04/03 06:31:28;;;;;;;8.35;7.65;;;3.40;99.90;;;;;;5964386;23;20194;-76
2022/04/03 06:33:55;;;;;;;7.68;7.07;;;3.40;99.90;;;;;;5967804;23;20197;-76
2022/04/03 06:36:23;;;;;;;8.55;7.57;;;3.70;99.90;;;;;;5968540;23;20225;-76
2022/04/03 06:38:50;;;;;;;7.60;6.90;;;3.90;99.90;;;;;;5964463;23;20198;-75
2022/04/03 06:41:17;;;;;;;6.70;6.10;;;4.20;99.90;;;;;;5963064;23;20213;-75
2022/04/03 06:43:45;;;;;;;6.40;5.88;;;4.50;99.90;;;;;;5968958;23;20773;-76
2022/04/03 06:46:12;;;;;;;6.40;5.90;;;4.70;99.90;;;;;;5964805;23;20205;-76
2022/04/03 06:48:39;;;;;;;7.28;6.57;;;4.80;99.90;;;;;;5965190;23;20751;-75
2022/04/03 06:51:06;;;;;;;5.75;5.20;;;4.90;99.90;;;;;;5967935;23;20274;-75
2022/04/03 06:53:35;;;;;;;5.70;5.20;;;5.00;99.90;;;;;;5967633;23;20250;-75
2022/04/03 06:56:02;;;;;;;8.23;6.22;;;5.00;99.90;;;;;;5972754;23;20233;-75
2022/04/03 06:58:29;;;;;;;6.57;5.97;;;5.10;99.90;;;;;;5971011;23;20197;-77
2022/04/03 07:00:56;;;;;;;5.90;5.40;;;5.20;99.90;;;;;;5968049;23;20221;-76
2022/04/03 07:03:23;;;;;;;6.43;5.82;;;5.20;99.90;;;;;;5970338;23;20211;-74
2022/04/03 07:05:50;;;;;;;6.20;5.70;;;5.30;99.90;;;;;;5972345;23;20193;-76
2022/04/03 07:08:17;;;;;;;5.72;5.22;;;5.40;99.90;;;;;;5940396;23;20234;-75
2022/04/03 07:10:46;;;;;;;5.85;5.30;;;5.40;99.90;;;;;;5972134;23;20202;-79
2022/04/03 07:13:13;;;;;;;6.20;5.60;;;5.50;99.90;;;;;;5968713;23;20298;-75
2022/04/03 07:15:40;;;;;;;6.80;6.20;;;5.50;99.90;;;;;;5971063;23;20195;-75
2022/04/03 07:18:08;;;;;;;5.20;4.80;;;5.50;99.90;;;;;;5971179;23;20274;-76
2022/04/03 07:20:35;;;;;;;5.78;5.18;;;5.50;99.90;;;;;;5973198;23;20562;-76
2022/04/03 07:23:02;;;;;;;5.68;5.15;;;5.50;99.90;;;;;;5970810;23;20215;-76
2022/04/03 07:25:29;;;;;;;5.72;5.25;;;5.60;99.90;;;;;;5969105;23;20182;-75
2022/04/03 07:27:58;;;;;;;5.60;5.10;;;5.70;99.90;;;;;;5974725;23;20187;-75
2022/04/03 07:30:25;;;;;;;5.45;5.00;;;5.90;99.90;;;;;;5967490;23;20214;-75
2022/04/03 07:32:52;;;;;;;5.18;4.70;;;6.00;99.90;;;;;;5969224;23;20230;-75
2022/04/03 07:35:19;;;;;;;6.53;5.35;;;6.10;99.90;;;;;;5974843;23;20260;-75
2022/04/03 07:37:46;;;;;;;6.18;5.68;;;6.20;99.90;;;;;;5975340;23;20658;-75
2022/04/03 07:40:16;;;;;;;5.43;4.90;;;6.20;99.90;;;;;;5971296;23;20226;-76
2022/04/03 07:42:46;;;;;;;6.07;5.57;;;6.30;99.90;;;;;;5974454;24;20349;-76
2022/04/03 07:45:14;;;;;;;5.35;4.85;;;6.40;99.90;;;;;;5971546;24;20554;-83
2022/04/03 07:47:48;;;;;;;4.68;4.28;;;6.80;99.90;;;;;;5973554;24;20241;-76
2022/04/03 07:50:16;;;;;;;5.43;5.03;;;6.90;99.90;;;;;;5972901;23;20227;-76
2022/04/03 07:52:43;;;;;;;4.80;4.40;;;7.00;99.90;;;;;;5958630;23;20314;-75
2022/04/03 07:55:11;;;;;;;5.93;5.43;;;7.10;99.90;;;;;;5966461;23;20254;-76
2022/04/03 07:57:39;;;;;;;5.15;4.68;;;7.40;99.90;;;;;;5971983;23;20650;-80
2022/04/03 08:00:07;;;;;;;5.45;5.03;;;7.30;99.90;;;;;;5966615;23;20702;-80
2022/04/03 08:02:36;;;;;;;5.10;4.70;;;7.20;99.90;;;;;;5968958;23;20674;-74
2022/04/03 08:05:03;;;;;;;5.47;4.70;;;7.00;99.90;;;;;;5961991;23;20187;-76
2022/04/03 08:07:37;;;;;;;4.75;4.43;;;7.00;99.90;;;;;;5949461;23;20195;-75
2022/04/03 08:10:06;;;;;;;4.53;4.13;;;6.90;99.90;;;;;;5958739;23;20691;-75
2022/04/03 08:12:33;;;;;;;5.18;4.78;;;6.90;99.90;;;;;;5954573;23;20193;-75
2022/04/03 08:15:00;;;;;;;4.80;4.40;;;6.90;99.90;;;;;;5969063;23;20193;-76
2022/04/03 08:17:28;;;;;;;4.82;4.32;;;6.90;99.90;;;;;;5970549;23;20665;-75
2022/04/03 08:19:56;;;;;;;4.80;4.40;;;7.00;99.90;;;;;;5962067;23;20203;-75
2022/04/03 08:22:24;;;;;;;4.50;4.10;;;7.20;99.90;;;;;;5957713;23;20187;-75
2022/04/03 08:24:51;;;;;;;4.57;3.78;;;7.30;99.90;;;;;;5963976;23;20191;-75
2022/04/03 08:27:18;;;;;;;4.10;3.78;;;7.50;99.90;;;;;;5964043;23;20179;-75
2022/04/03 08:29:46;;;;;;;4.50;4.10;;;7.90;99.90;;;;;;5961722;23;20219;-75
2022/04/03 08:32:16;;;;;;;4.75;4.38;;;8.30;99.90;;;;;;5969637;23;20245;-75
2022/04/03 08:34:43;;;;;;;4.35;3.95;;;8.80;99.90;;;;;;5967613;23;20654;-76
2022/04/03 08:37:11;;;;;;;3.88;3.58;;;9.60;99.90;;;;;;5970625;23;20194;-75
2022/04/03 08:39:39;;;;;;;4.47;4.18;;;9.90;99.90;;;;;;5965716;23;20265;-76
2022/04/03 08:42:07;;;;;;;4.93;4.53;;;9.90;99.90;;;;;;5965982;23;20190;-75
2022/04/03 08:44:34;;;;;;;4.53;4.13;;;9.90;99.90;;;;;;5970609;23;20187;-76
2022/04/03 08:47:06;;;;;;;3.63;3.30;;;10.10;99.40;;;;;;5971776;23;20203;-76
2022/04/03 08:49:34;;;;;;;4.18;3.88;;;10.60;97.00;;;;;;5972855;23;20222;-76
2022/04/03 08:52:02;;;;;;;4.00;3.70;;;11.00;97.00;;;;;;5978635;23;20292;-79
2022/04/03 08:54:32;;;;;;;3.78;3.47;;;11.60;97.90;;;;;;5982742;23;20646;-79
2022/04/03 08:56:59;;;;;;;3.38;3.08;;;12.30;96.20;;;;;;5990226;23;20201;-79
2022/04/03 08:59:27;;;;;;;2.92;2.72;;;12.50;94.50;;;;;;5970648;23;20240;-79
2022/04/03 09:01:54;;;;;;;5.05;3.25;;;13.10;92.60;;;;;;5956192;23;20187;-80
2022/04/03 09:04:21;;;;;;;3.95;3.63;;;13.70;92.20;;;;;;5967057;23;20270;-79
2022/04/03 09:06:56;;;;;;;4.35;3.95;;;14.30;91.70;;;;;;5966991;23;20276;-79
2022/04/03 09:09:24;;;;;;;4.30;4.00;;;14.90;85.70;;;;;;5963074;23;20282;-80
2022/04/03 09:12:08;;;;;;;4.45;3.50;;;15.10;87.30;;;;;;5957125;23;20302;-79
2022/04/03 09:14:36;;;;;;;3.65;3.25;;;15.50;83.20;;;;;;5963212;23;20238;-79
2022/04/03 09:17:03;;;;;;;3.65;3.35;;;15.50;74.90;;;;;;5963419;23;20501;-79
2022/04/03 09:19:34;;;;;;;3.78;3.53;;;15.00;78.50;;;;;;5972297;23;20230;-79
2022/04/03 09:22:02;;;;;;;3.40;3.10;;;14.00;75.50;;;;;;5964195;23;20183;-79
2022/04/03 09:24:30;;;;;;;5.55;3.15;;;12.90;75.40;;;;;;5967716;23;20189;-78
2022/04/03 09:26:58;;;;;;;8.95;8.13;;;12.00;78.00;;;;;;5961645;23;20665;-78
2022/04/03 09:29:27;;;;;;;6.50;5.90;;;11.10;83.30;;;;;;5971706;23;20229;-78
2022/04/03 09:32:00;;;;;;;5.88;5.32;;;10.70;88.60;;;;;;5972553;23;20228;-77
2022/04/03 09:34:29;;;;;;;4.40;4.00;;;10.40;90.00;;;;;;5968603;23;20197;-79
2022/04/03 09:36:58;;;;;;;4.88;4.55;;;9.90;91.50;;;;;;5968039;23;20266;-79
2022/04/03 09:39:27;;;;;;;5.00;4.60;;;9.60;91.60;;;;;;5965841;23;20223;-80
2022/04/03 09:41:59;;;;;;;5.45;5.05;;;9.20;92.50;;;;;;5963909;23;20276;-80
2022/04/03 09:44:31;;;;;;;6.32;5.90;;;8.80;93.10;;;;;;5967171;23;21024;-78
2022/04/03 09:47:16;;;;;;;4.13;3.72;;;8.60;93.80;;;;;;5974191;23;20230;-78
2022/04/03 09:49:45;;;;;;;4.05;3.75;;;8.30;93.90;;;;;;5974857;23;20222;-78
2022/04/03 09:52:12;;;;;;;7.38;6.88;;;8.00;94.90;;;;;;5974379;23;20202;-78
2022/04/03 09:54:40;;;;;;;5.95;5.55;;;7.80;95.40;;;;;;5973640;24;20191;-78
2022/04/03 09:57:23;;;;;;;4.20;3.80;;;7.60;95.60;;;;;;5974439;23;20399;-78
2022/04/03 09:59:54;;;;;;;4.25;3.95;;;7.40;94.90;;;;;;5965084;23;20215;-78
2022/04/03 10:02:22;;;;;;;3.53;3.22;;;7.20;96.40;;;;;;5974317;23;20721;-78
2022/04/03 10:04:52;;;;;;;3.25;2.95;;;7.10;96.10;;;;;;5975617;24;20222;-78
2022/04/03 10:07:20;;;;;;;4.32;3.30;;;6.90;96.30;;;;;;5973871;24;20205;-78
2022/04/03 10:09:48;;;;;;;3.63;3.30;;;6.80;96.60;;;;;;5975412;23;20293;-78
2022/04/03 10:12:17;;;;;;;3.70;3.40;;;6.80;97.10;;;;;;5971614;23;20269;-77
2022/04/03 10:14:45;;;;;;;3.67;3.38;;;6.80;97.00;;;;;;5961507;23;20187;-78
2022/04/03 10:17:14;;;;;;;3.22;2.92;;;6.90;96.80;;;;;;5974009;24;20205;-78
2022/04/03 10:19:41;;;;;;;3.70;3.40;;;6.90;97.20;;;;;;5974210;23;20213;-77
2022/04/03 10:22:13;;;;;;;3.90;3.38;;;7.10;97.60;;;;;;5974799;23;20633;-78
2022/04/03 10:24:44;;;;;;;3.20;2.80;;;7.50;96.80;;;;;;5974361;24;20270;-78
2022/04/03 10:27:15;;;;;;;2.92;2.67;;;8.30;93.90;;;;;;5974574;23;20242;-78
2022/04/03 10:29:44;;;;;;;2.85;2.65;;;9.20;91.50;;;;;;5975427;23;20234;-78
2022/04/03 10:32:23;;;;;;;2.80;2.60;;;10.60;91.10;;;;;;5968155;23;20196;-78
2022/04/03 10:34:54;;;;;;;2.58;2.38;;;12.10;85.70;;;;;;5974537;23;20182;-78
2022/04/03 10:37:34;;;;;;;3.30;2.20;;;13.50;81.20;;;;;;5975884;23;20290;-78
2022/04/03 10:40:07;;;;;;;2.05;1.80;;;14.70;77.50;;;;;;5970588;23;20211;-78
2022/04/03 10:42:38;;;;;;;3.70;2.30;;;15.60;69.90;;;;;;5971319;24;20191;-78
2022/04/03 10:45:28;;;;;;;3.27;2.40;;;16.20;67.00;;;;;;5972801;23;20443;-78
2022/04/03 10:48:27;;;;;;;3.00;2.80;;;15.70;61.00;;;;;;5972922;23;20544;-78
2022/04/03 10:51:00;;;;;;;2.63;2.42;;;15.20;62.80;;;;;;5975215;23;20501;-77
2022/04/03 10:53:30;;;;;;;2.50;2.30;;;13.00;60.70;;;;;;5975584;24;20186;-78
2022/04/03 10:55:58;;;;;;;2.65;2.45;;;11.90;64.20;;;;;;5972641;23;20241;-78
2022/04/03 10:58:38;;;;;;;2.67;2.47;;;11.40;68.50;;;;;;5969484;23;20239;-78
2022/04/03 11:01:05;;;;;;;2.80;2.60;;;11.00;66.40;;;;;;5974509;23;20207;-78
2022/04/03 11:03:37;;;;;;;2.72;2.53;;;10.60;72.80;;;;;;5975264;24;20188;-78
2022/04/03 11:06:23;;;;;;;8.48;3.20;;;9.60;71.00;;;;;;5974619;23;20197;-78
2022/04/03 11:09:08;;;;;;;3.30;2.50;;;9.20;70.10;;;;;;5972828;23;20233;-78
2022/04/03 11:11:37;;;;;;;2.97;2.72;;;9.00;77.40;;;;;;5975696;24;20197;-78
2022/04/03 11:14:07;;;;;;;3.80;2.72;;;8.70;76.00;;;;;;5964865;23;20206;-78
2022/04/03 11:16:50;;;;;;;3.13;2.83;;;8.30;72.80;;;;;;5974527;24;20191;-77
2022/04/03 11:19:34;;;;;;;3.08;2.88;;;7.90;73.80;;;;;;5963874;24;20211;-77
2022/04/03 11:22:02;;;;;;;2.90;2.60;;;7.20;75.90;;;;;;5971813;23;20590;-77
2022/04/03 11:24:30;;;;;;;3.40;3.10;;;7.10;79.20;;;;;;5970659;24;20261;-80
2022/04/03 11:26:58;;;;;;;2.90;2.60;;;7.00;79.10;;;;;;5968879;24;20191;-78
2022/04/03 11:29:25;;;;;;;3.58;3.28;;;7.10;81.40;;;;;;5970910;23;20215;-79
2022/04/03 11:31:54;;;;;;;3.85;2.95;;;7.10;82.30;;;;;;5973040;24;20187;-76
2022/04/03 11:34:21;;;;;;;3.10;2.83;;;7.30;84.40;;;;;;5963836;23;20258;-79
2022/04/03 11:36:57;;;;;;;2.90;2.70;;;7.50;84.20;;;;;;5971153;23;20187;-77
2022/04/03 11:39:32;;;;;;;3.40;2.85;;;7.80;82.10;;;;;;5970224;23;20206;-78
2022/04/03 11:42:06;;;;;;;3.50;3.20;;;7.80;79.20;;;;;;5968058;23;20183;-78
2022/04/03 11:44:35;;;;;;;3.20;2.90;;;7.90;80.70;;;;;;5970538;23;20210;-78
2022/04/03 11:47:03;;;;;;;3.58;2.92;;;8.10;81.30;;;;;;5971672;23;20245;-78
2022/04/03 11:49:31;;;;;;;3.55;2.80;;;8.30;79.70;;;;;;5970201;23;20635;-78
2022/04/03 11:52:08;;;;;;;2.95;2.75;;;8.60;77.10;;;;;;5972894;23;20236;-79
2022/04/03 11:54:36;;;;;;;3.20;2.90;;;8.80;79.10;;;;;;5968709;23;20916;-77
2022/04/03 11:57:05;;;;;;;3.50;3.20;;;8.80;77.50;;;;;;5969827;23;20203;-77
2022/04/03 11:59:34;;;;;;;3.13;2.83;;;8.70;78.30;;;;;;5969022;23;20214;-77
2022/04/03 12:02:09;;;;;;;3.50;3.20;;;8.40;79.80;;;;;;5968442;23;20191;-77
2022/04/03 12:04:40;;;;;;;3.00;2.80;;;8.20;80.80;;;;;;5971989;24;20194;-76
2022/04/03 12:07:13;;;;;;;3.25;2.95;;;7.90;81.50;;;;;;5972109;23;20774;-77
2022/04/03 12:09:42;;;;;;;3.67;3.38;;;7.60;82.10;;;;;;5972400;24;20519;-74
2022/04/03 12:12:10;;;;;;;5.25;3.50;;;7.40;90.60;;;;;;5960932;23;20644;-77
2022/04/03 12:14:39;;;;;;;4.07;3.28;;;7.50;93.50;;;;;;5967353;23;20187;-78
2022/04/03 12:17:08;;;;;;;4.18;3.75;;;7.40;88.60;;;;;;5971293;23;20266;-78
2022/04/03 12:19:39;;;;;;;3.50;2.88;;;7.10;87.40;;;;;;5970046;23;20198;-78
2022/04/03 12:22:10;;;;;;;3.40;3.10;;;6.90;88.00;;;;;;5975384;24;20218;-80
2022/04/03 12:24:39;;;;;;;3.80;3.50;;;6.80;89.80;;;;;;5967397;23;20187;-77
2022/04/03 12:27:12;;;;;;;3.53;3.22;;;6.60;89.60;;;;;;5955928;23;20265;-77
2022/04/03 12:29:41;;;;;;;3.78;3.38;;;6.40;90.30;;;;;;5965814;23;20214;-77
2022/04/03 12:32:10;;;;;;;3.72;3.40;;;6.40;90.70;;;;;;5961312;23;20712;-77
2022/04/03 12:34:39;;;;;;;3.85;3.55;;;6.20;91.50;;;;;;5957998;23;20811;-76
2022/04/03 12:37:09;;;;;;;4.30;3.20;;;6.20;91.40;;;;;;5960926;23;20228;-82
2022/04/03 12:39:39;;;;;;;3.88;3.58;;;6.00;91.80;;;;;;5947746;23;20839;-88
2022/04/03 12:42:13;;;;;;;4.03;3.72;;;6.00;92.70;;;;;;5956835;23;20230;-87
2022/04/03 12:44:50;;;;;;;3.72;3.30;;;5.90;92.20;;;;;;5958772;23;20195;-86
2022/04/03 12:47:18;;;;;;;3.63;3.00;;;5.90;92.50;;;;;;5962126;23;20206;-85
2022/04/03 12:49:47;;;;;;;3.22;2.92;;;5.90;93.10;;;;;;5969609;23;20194;-85
2022/04/03 12:52:37;;;;;;;3.15;2.85;;;6.00;92.70;;;;;;5971646;23;20606;-83
2022/04/03 12:55:04;;;;;;;3.30;3.00;;;6.00;92.90;;;;;;5964697;23;20179;-84